sensor_id;sensor_type;location;lat;lon;timestamp;temperature;humidity
78461;SHT31;67755;51.986;5.696;2023-03-24T00:02:21;15.2;69.3
78461;SHT31;67755;51.986;5.696;2023-03-24T00:04:51;15.2;69.3
78461;SHT31;67755;51.986;5.696;2023-03-24T00:07:25;15.2;69.4
78461;SHT31;67755;51.986;5.696;2023-03-24T00:09:57;15.2;69.5
78461;SHT31;67755;51.986;5.696;2023-03-24T00:12:26;15.2;69.4
78461;SHT31;67755;51.986;5.696;2023-03-24T00:14:57;15.2;69.4
78461;SHT31;67755;51.986;5.696;2023-03-24T00:17:29;15.2;69.6
78461;SHT31;67755;51.986;5.696;2023-03-24T00:19:58;15.2;69.8
78461;SHT31;67755;51.986;5.696;2023-03-24T00:22:28;15.2;69.7
78461;SHT31;67755;51.986;5.696;2023-03-24T00:24:57;15.2;69.8
78461;SHT31;67755;51.986;5.696;2023-03-24T00:27:31;15.2;69.7
78461;SHT31;67755;51.986;5.696;2023-03-24T00:30:04;15.2;69.9
78461;SHT31;67755;51.986;5.696;2023-03-24T00:32:35;15.2;70.0
78461;SHT31;67755;51.986;5.696;2023-03-24T00:35:07;15.2;70.1
78461;SHT31;67755;51.986;5.696;2023-03-24T00:37:39;15.2;70.1
78461;SHT31;67755;51.986;5.696;2023-03-24T00:40:14;15.2;70.2
78461;SHT31;67755;51.986;5.696;2023-03-24T00:42:45;15.1;70.2
78461;SHT31;67755;51.986;5.696;2023-03-24T00:45:17;15.1;70.4
78461;SHT31;67755;51.986;5.696;2023-03-24T00:47:49;15.1;70.5
78461;SHT31;67755;51.986;5.696;2023-03-24T00:50:21;15.1;70.4
78461;SHT31;67755;51.986;5.696;2023-03-24T00:52:53;15.1;70.4
78461;SHT31;67755;51.986;5.696;2023-03-24T00:55:24;15.1;70.5
78461;SHT31;67755;51.986;5.696;2023-03-24T00:57:55;15.1;70.5
78461;SHT31;67755;51.986;5.696;2023-03-24T01:00:27;15.1;70.2
78461;SHT31;67755;51.986;5.696;2023-03-24T01:02:57;15.2;70.3
78461;SHT31;67755;51.986;5.696;2023-03-24T01:05:30;15.2;70.3
78461;SHT31;67755;51.986;5.696;2023-03-24T01:08:00;15.1;70.5
78461;SHT31;67755;51.986;5.696;2023-03-24T01:10:32;15.2;70.6
78461;SHT31;67755;51.986;5.696;2023-03-24T01:13:08;15.2;70.6
78461;SHT31;67755;51.986;5.696;2023-03-24T01:15:38;15.2;70.7
78461;SHT31;67755;51.986;5.696;2023-03-24T01:18:09;15.2;70.7
78461;SHT31;67755;51.986;5.696;2023-03-24T01:20:43;15.2;70.3
78461;SHT31;67755;51.986;5.696;2023-03-24T01:23:15;15.2;70.5
78461;SHT31;67755;51.986;5.696;2023-03-24T01:25:48;15.2;70.7
78461;SHT31;67755;51.986;5.696;2023-03-24T01:28:20;15.2;70.4
78461;SHT31;67755;51.986;5.696;2023-03-24T01:30:52;15.2;70.6
78461;SHT31;67755;51.986;5.696;2023-03-24T01:33:22;15.2;70.2
78461;SHT31;67755;51.986;5.696;2023-03-24T01:35:53;15.2;70.5
78461;SHT31;67755;51.986;5.696;2023-03-24T01:38:23;15.2;70.6
78461;SHT31;67755;51.986;5.696;2023-03-24T01:40:52;15.2;70.4
78461;SHT31;67755;51.986;5.696;2023-03-24T01:43:25;15.2;70.7
78461;SHT31;67755;51.986;5.696;2023-03-24T01:46:14;15.2;70.5
78461;SHT31;67755;51.986;5.696;2023-03-24T01:48:49;15.2;70.8
78461;SHT31;67755;51.986;5.696;2023-03-24T01:51:25;15.2;70.6
78461;SHT31;67755;51.986;5.696;2023-03-24T01:54:00;15.2;70.9
78461;SHT31;67755;51.986;5.696;2023-03-24T01:56:33;15.2;71.1
78461;SHT31;67755;51.986;5.696;2023-03-24T01:59:08;15.2;71.1
78461;SHT31;67755;51.986;5.696;2023-03-24T02:01:40;15.2;71.3
78461;SHT31;67755;51.986;5.696;2023-03-24T02:04:13;15.2;71.5
78461;SHT31;67755;51.986;5.696;2023-03-24T02:06:45;15.2;71.3
78461;SHT31;67755;51.986;5.696;2023-03-24T02:09:17;15.3;71.4
78461;SHT31;67755;51.986;5.696;2023-03-24T02:11:48;15.3;70.9
78461;SHT31;67755;51.986;5.696;2023-03-24T02:14:18;15.3;71.1
78461;SHT31;67755;51.986;5.696;2023-03-24T02:17:08;15.3;71.2
78461;SHT31;67755;51.986;5.696;2023-03-24T02:21:17;15.3;71.4
78461;SHT31;67755;51.986;5.696;2023-03-24T02:24:21;15.3;71.3
78461;SHT31;67755;51.986;5.696;2023-03-24T02:27:04;15.3;71.3
78461;SHT31;67755;51.986;5.696;2023-03-24T02:30:09;15.3;71.3
78461;SHT31;67755;51.986;5.696;2023-03-24T02:32:58;15.3;71.2
78461;SHT31;67755;51.986;5.696;2023-03-24T02:37:35;15.3;71.3
78461;SHT31;67755;51.986;5.696;2023-03-24T02:40:19;15.3;71.4
78461;SHT31;67755;51.986;5.696;2023-03-24T02:43:06;15.3;71.3
78461;SHT31;67755;51.986;5.696;2023-03-24T02:45:46;15.3;71.4
78461;SHT31;67755;51.986;5.696;2023-03-24T02:48:30;15.3;71.6
78461;SHT31;67755;51.986;5.696;2023-03-24T02:51:09;15.3;71.7
78461;SHT31;67755;51.986;5.696;2023-03-24T02:53:52;15.3;71.4
78461;SHT31;67755;51.986;5.696;2023-03-24T02:56:32;15.3;71.6
78461;SHT31;67755;51.986;5.696;2023-03-24T02:59:05;15.3;71.6
78461;SHT31;67755;51.986;5.696;2023-03-24T03:01:40;15.3;72.0
78461;SHT31;67755;51.986;5.696;2023-03-24T03:04:17;15.3;71.2
78461;SHT31;67755;51.986;5.696;2023-03-24T03:06:52;15.3;68.7
78461;SHT31;67755;51.986;5.696;2023-03-24T03:09:28;15.3;67.8
78461;SHT31;67755;51.986;5.696;2023-03-24T03:11:59;15.3;67.3
78461;SHT31;67755;51.986;5.696;2023-03-24T03:14:34;15.3;67.3
78461;SHT31;67755;51.986;5.696;2023-03-24T03:17:10;15.3;66.5
78461;SHT31;67755;51.986;5.696;2023-03-24T03:19:46;15.2;67.2
78461;SHT31;67755;51.986;5.696;2023-03-24T03:22:23;15.2;66.7
78461;SHT31;67755;51.986;5.696;2023-03-24T03:24:56;15.2;66.5
78461;SHT31;67755;51.986;5.696;2023-03-24T03:27:31;15.1;66.6
78461;SHT31;67755;51.986;5.696;2023-03-24T03:30:10;15.1;66.1
78461;SHT31;67755;51.986;5.696;2023-03-24T03:32:45;15.1;65.8
78461;SHT31;67755;51.986;5.696;2023-03-24T03:35:24;15.1;66.0
78461;SHT31;67755;51.986;5.696;2023-03-24T03:37:59;15.1;64.6
78461;SHT31;67755;51.986;5.696;2023-03-24T03:40:37;15.0;65.1
78461;SHT31;67755;51.986;5.696;2023-03-24T03:43:08;15.0;64.6
78461;SHT31;67755;51.986;5.696;2023-03-24T03:45:38;15.0;64.5
78461;SHT31;67755;51.986;5.696;2023-03-24T03:48:08;14.9;64.2
78461;SHT31;67755;51.986;5.696;2023-03-24T03:50:38;14.9;63.7
78461;SHT31;67755;51.986;5.696;2023-03-24T03:53:08;14.9;63.2
78461;SHT31;67755;51.986;5.696;2023-03-24T03:55:40;14.8;63.3
78461;SHT31;67755;51.986;5.696;2023-03-24T03:58:10;14.8;62.8
78461;SHT31;67755;51.986;5.696;2023-03-24T04:00:40;14.8;63.0
78461;SHT31;67755;51.986;5.696;2023-03-24T04:03:31;14.7;63.2
78461;SHT31;67755;51.986;5.696;2023-03-24T04:06:14;14.7;62.6
78461;SHT31;67755;51.986;5.696;2023-03-24T04:08:50;14.6;63.2
78461;SHT31;67755;51.986;5.696;2023-03-24T04:12:25;14.6;63.4
78461;SHT31;67755;51.986;5.696;2023-03-24T04:15:31;14.6;62.9
78461;SHT31;67755;51.986;5.696;2023-03-24T04:18:13;14.5;63.4
78461;SHT31;67755;51.986;5.696;2023-03-24T04:20:51;14.5;63.8
78461;SHT31;67755;51.986;5.696;2023-03-24T04:23:32;14.5;63.4
78461;SHT31;67755;51.986;5.696;2023-03-24T04:26:14;14.4;63.9
78461;SHT31;67755;51.986;5.696;2023-03-24T04:28:55;14.4;63.0
78461;SHT31;67755;51.986;5.696;2023-03-24T04:31:31;14.4;63.7
78461;SHT31;67755;51.986;5.696;2023-03-24T04:34:12;14.4;63.3
78461;SHT31;67755;51.986;5.696;2023-03-24T04:36:47;14.3;63.7
78461;SHT31;67755;51.986;5.696;2023-03-24T04:39:24;14.3;64.0
78461;SHT31;67755;51.986;5.696;2023-03-24T04:41:57;14.3;64.0
78461;SHT31;67755;51.986;5.696;2023-03-24T04:44:29;14.3;63.9
78461;SHT31;67755;51.986;5.696;2023-03-24T04:47:01;14.2;63.6
78461;SHT31;67755;51.986;5.696;2023-03-24T04:49:31;14.2;63.3
78461;SHT31;67755;51.986;5.696;2023-03-24T04:52:02;14.2;63.5
78461;SHT31;67755;51.986;5.696;2023-03-24T04:54:33;14.2;63.3
78461;SHT31;67755;51.986;5.696;2023-03-24T04:57:03;14.1;63.1
78461;SHT31;67755;51.986;5.696;2023-03-24T04:59:34;14.1;62.6
78461;SHT31;67755;51.986;5.696;2023-03-24T05:02:03;14.1;62.6
78461;SHT31;67755;51.986;5.696;2023-03-24T05:04:33;14.1;62.0
78461;SHT31;67755;51.986;5.696;2023-03-24T05:07:04;14.0;62.3
78461;SHT31;67755;51.986;5.696;2023-03-24T05:09:34;14.0;62.3
78461;SHT31;67755;51.986;5.696;2023-03-24T05:12:03;14.0;62.5
78461;SHT31;67755;51.986;5.696;2023-03-24T05:14:35;14.0;62.3
78461;SHT31;67755;51.986;5.696;2023-03-24T05:17:04;13.9;61.6
78461;SHT31;67755;51.986;5.696;2023-03-24T05:19:34;13.9;62.1
78461;SHT31;67755;51.986;5.696;2023-03-24T05:22:04;13.9;62.2
78461;SHT31;67755;51.986;5.696;2023-03-24T05:24:33;13.9;62.4
78461;SHT31;67755;51.986;5.696;2023-03-24T05:27:03;13.9;62.1
78461;SHT31;67755;51.986;5.696;2023-03-24T05:29:32;13.8;61.9
78461;SHT31;67755;51.986;5.696;2023-03-24T05:32:02;13.8;62.1
78461;SHT31;67755;51.986;5.696;2023-03-24T05:34:32;13.8;61.9
78461;SHT31;67755;51.986;5.696;2023-03-24T05:37:02;13.8;62.0
78461;SHT31;67755;51.986;5.696;2023-03-24T05:39:33;13.8;62.2
78461;SHT31;67755;51.986;5.696;2023-03-24T05:42:02;13.7;62.6
78461;SHT31;67755;51.986;5.696;2023-03-24T05:44:32;13.7;62.7
78461;SHT31;67755;51.986;5.696;2023-03-24T05:47:02;13.7;63.0
78461;SHT31;67755;51.986;5.696;2023-03-24T05:49:32;13.7;63.0
78461;SHT31;67755;51.986;5.696;2023-03-24T05:52:02;13.6;63.3
78461;SHT31;67755;51.986;5.696;2023-03-24T05:54:32;13.6;63.5
78461;SHT31;67755;51.986;5.696;2023-03-24T05:57:02;13.6;63.5
78461;SHT31;67755;51.986;5.696;2023-03-24T05:59:31;13.6;63.5
78461;SHT31;67755;51.986;5.696;2023-03-24T06:02:03;13.6;62.8
78461;SHT31;67755;51.986;5.696;2023-03-24T06:04:36;13.6;62.9
78461;SHT31;67755;51.986;5.696;2023-03-24T06:07:05;13.6;63.0
78461;SHT31;67755;51.986;5.696;2023-03-24T06:09:35;13.6;63.1
78461;SHT31;67755;51.986;5.696;2023-03-24T06:12:09;13.6;63.7
78461;SHT31;67755;51.986;5.696;2023-03-24T06:14:38;13.6;63.7
78461;SHT31;67755;51.986;5.696;2023-03-24T06:17:09;13.6;63.5
78461;SHT31;67755;51.986;5.696;2023-03-24T06:19:42;13.6;63.6
78461;SHT31;67755;51.986;5.696;2023-03-24T06:22:17;13.6;63.6
78461;SHT31;67755;51.986;5.696;2023-03-24T06:24:47;13.7;63.3
78461;SHT31;67755;51.986;5.696;2023-03-24T06:27:17;13.7;63.1
78461;SHT31;67755;51.986;5.696;2023-03-24T06:29:48;13.7;63.3
78461;SHT31;67755;51.986;5.696;2023-03-24T06:32:19;13.7;63.5
78461;SHT31;67755;51.986;5.696;2023-03-24T06:34:49;13.7;62.8
78461;SHT31;67755;51.986;5.696;2023-03-24T06:37:21;13.7;63.5
78461;SHT31;67755;51.986;5.696;2023-03-24T06:39:51;13.7;62.9
78461;SHT31;67755;51.986;5.696;2023-03-24T06:42:20;13.7;63.5
78461;SHT31;67755;51.986;5.696;2023-03-24T06:44:50;13.7;63.3
78461;SHT31;67755;51.986;5.696;2023-03-24T06:47:21;13.7;63.5
78461;SHT31;67755;51.986;5.696;2023-03-24T06:49:50;13.8;62.9
78461;SHT31;67755;51.986;5.696;2023-03-24T06:52:20;13.8;62.4
78461;SHT31;67755;51.986;5.696;2023-03-24T06:54:51;13.8;62.8
78461;SHT31;67755;51.986;5.696;2023-03-24T06:57:20;13.8;62.7
78461;SHT31;67755;51.986;5.696;2023-03-24T06:59:50;13.8;62.7
78461;SHT31;67755;51.986;5.696;2023-03-24T07:02:20;13.8;62.2
78461;SHT31;67755;51.986;5.696;2023-03-24T07:04:52;13.8;61.2
78461;SHT31;67755;51.986;5.696;2023-03-24T07:07:21;13.8;61.5
78461;SHT31;67755;51.986;5.696;2023-03-24T07:09:51;13.8;61.6
78461;SHT31;67755;51.986;5.696;2023-03-24T07:12:22;13.8;61.7
78461;SHT31;67755;51.986;5.696;2023-03-24T07:14:51;13.8;63.1
78461;SHT31;67755;51.986;5.696;2023-03-24T07:17:22;13.8;61.6
78461;SHT31;67755;51.986;5.696;2023-03-24T07:19:52;13.8;63.1
78461;SHT31;67755;51.986;5.696;2023-03-24T07:22:21;13.8;62.4
78461;SHT31;67755;51.986;5.696;2023-03-24T07:24:51;13.9;61.5
78461;SHT31;67755;51.986;5.696;2023-03-24T07:27:22;13.9;62.2
78461;SHT31;67755;51.986;5.696;2023-03-24T07:29:54;13.9;61.9
78461;SHT31;67755;51.986;5.696;2023-03-24T07:32:23;14.0;61.6
78461;SHT31;67755;51.986;5.696;2023-03-24T07:34:57;14.1;61.4
78461;SHT31;67755;51.986;5.696;2023-03-24T07:37:26;14.1;60.9
78461;SHT31;67755;51.986;5.696;2023-03-24T07:39:56;14.1;61.2
78461;SHT31;67755;51.986;5.696;2023-03-24T07:42:28;14.2;60.5
78461;SHT31;67755;51.986;5.696;2023-03-24T07:44:57;14.2;60.5
78461;SHT31;67755;51.986;5.696;2023-03-24T07:47:27;14.2;60.8
78461;SHT31;67755;51.986;5.696;2023-03-24T07:49:57;14.2;60.3
78461;SHT31;67755;51.986;5.696;2023-03-24T07:52:26;14.3;60.6
78461;SHT31;67755;51.986;5.696;2023-03-24T07:54:56;14.3;60.2
78461;SHT31;67755;51.986;5.696;2023-03-24T07:57:26;14.3;59.8
78461;SHT31;67755;51.986;5.696;2023-03-24T07:59:55;14.3;60.4
78461;SHT31;67755;51.986;5.696;2023-03-24T08:02:25;14.3;61.2
78461;SHT31;67755;51.986;5.696;2023-03-24T08:04:56;14.4;60.6
78461;SHT31;67755;51.986;5.696;2023-03-24T08:07:26;14.4;60.6
78461;SHT31;67755;51.986;5.696;2023-03-24T08:09:55;14.4;60.2
78461;SHT31;67755;51.986;5.696;2023-03-24T08:12:25;14.4;60.0
78461;SHT31;67755;51.986;5.696;2023-03-24T08:14:55;14.4;60.2
78461;SHT31;67755;51.986;5.696;2023-03-24T08:17:24;14.4;60.5
78461;SHT31;67755;51.986;5.696;2023-03-24T08:19:54;14.4;60.7
78461;SHT31;67755;51.986;5.696;2023-03-24T08:22:23;14.4;59.3
78461;SHT31;67755;51.986;5.696;2023-03-24T08:24:53;14.5;60.0
78461;SHT31;67755;51.986;5.696;2023-03-24T08:27:23;14.5;60.1
78461;SHT31;67755;51.986;5.696;2023-03-24T08:29:52;14.5;60.1
78461;SHT31;67755;51.986;5.696;2023-03-24T08:32:22;14.5;59.8
78461;SHT31;67755;51.986;5.696;2023-03-24T08:34:55;14.6;59.2
78461;SHT31;67755;51.986;5.696;2023-03-24T08:37:27;14.6;59.5
78461;SHT31;67755;51.986;5.696;2023-03-24T08:39:56;14.6;59.1
78461;SHT31;67755;51.986;5.696;2023-03-24T08:42:31;14.7;59.8
78461;SHT31;67755;51.986;5.696;2023-03-24T08:45:01;14.7;59.3
78461;SHT31;67755;51.986;5.696;2023-03-24T08:47:32;14.7;59.3
78461;SHT31;67755;51.986;5.696;2023-03-24T08:50:02;14.7;58.5
78461;SHT31;67755;51.986;5.696;2023-03-24T08:52:33;14.8;58.1
78461;SHT31;67755;51.986;5.696;2023-03-24T08:55:03;14.8;59.1
78461;SHT31;67755;51.986;5.696;2023-03-24T08:57:34;14.8;58.7
78461;SHT31;67755;51.986;5.696;2023-03-24T09:00:04;14.9;58.1
78461;SHT31;67755;51.986;5.696;2023-03-24T09:02:40;14.9;57.9
78461;SHT31;67755;51.986;5.696;2023-03-24T09:05:11;15.0;58.3
78461;SHT31;67755;51.986;5.696;2023-03-24T09:07:42;15.0;59.3
78461;SHT31;67755;51.986;5.696;2023-03-24T09:10:13;15.1;58.9
78461;SHT31;67755;51.986;5.696;2023-03-24T09:12:45;15.2;59.2
78461;SHT31;67755;51.986;5.696;2023-03-24T09:15:14;15.2;57.6
78461;SHT31;67755;51.986;5.696;2023-03-24T09:17:44;15.3;56.3
78461;SHT31;67755;51.986;5.696;2023-03-24T09:20:14;15.4;56.0
78461;SHT31;67755;51.986;5.696;2023-03-24T09:22:46;15.4;56.1
78461;SHT31;67755;51.986;5.696;2023-03-24T09:25:18;15.5;56.8
78461;SHT31;67755;51.986;5.696;2023-03-24T09:27:48;15.5;55.9
78461;SHT31;67755;51.986;5.696;2023-03-24T09:30:19;15.6;55.1
78461;SHT31;67755;51.986;5.696;2023-03-24T09:32:48;15.6;56.0
78461;SHT31;67755;51.986;5.696;2023-03-24T09:35:18;15.6;55.3
78461;SHT31;67755;51.986;5.696;2023-03-24T09:37:48;15.6;54.6
78461;SHT31;67755;51.986;5.696;2023-03-24T09:40:23;15.6;55.2
78461;SHT31;67755;51.986;5.696;2023-03-24T09:43:00;15.7;55.8
78461;SHT31;67755;51.986;5.696;2023-03-24T09:45:35;15.7;54.8
78461;SHT31;67755;51.986;5.696;2023-03-24T09:48:10;15.7;56.3
78461;SHT31;67755;51.986;5.696;2023-03-24T09:50:50;15.8;54.8
78461;SHT31;67755;51.986;5.696;2023-03-24T09:53:30;15.8;55.9
78461;SHT31;67755;51.986;5.696;2023-03-24T09:56:07;15.9;55.2
78461;SHT31;67755;51.986;5.696;2023-03-24T09:58:39;15.9;54.8
78461;SHT31;67755;51.986;5.696;2023-03-24T10:01:13;16.0;54.5
78461;SHT31;67755;51.986;5.696;2023-03-24T10:03:44;16.0;55.3
78461;SHT31;67755;51.986;5.696;2023-03-24T10:06:20;16.0;55.5
78461;SHT31;67755;51.986;5.696;2023-03-24T10:09:06;16.1;55.5
78461;SHT31;67755;51.986;5.696;2023-03-24T10:11:44;16.2;54.5
78461;SHT31;67755;51.986;5.696;2023-03-24T10:14:30;16.2;54.2
78461;SHT31;67755;51.986;5.696;2023-03-24T10:17:11;16.3;52.0
78461;SHT31;67755;51.986;5.696;2023-03-24T10:19:50;16.4;51.9
78461;SHT31;67755;51.986;5.696;2023-03-24T10:22:29;16.4;51.9
78461;SHT31;67755;51.986;5.696;2023-03-24T10:25:10;16.5;51.4
78461;SHT31;67755;51.986;5.696;2023-03-24T10:27:46;16.5;50.3
78461;SHT31;67755;51.986;5.696;2023-03-24T10:30:21;16.5;49.5
78461;SHT31;67755;51.986;5.696;2023-03-24T10:32:53;16.5;49.5
78461;SHT31;67755;51.986;5.696;2023-03-24T10:35:27;16.5;50.0
78461;SHT31;67755;51.986;5.696;2023-03-24T10:37:59;16.5;49.8
78461;SHT31;67755;51.986;5.696;2023-03-24T10:40:32;16.4;50.6
78461;SHT31;67755;51.986;5.696;2023-03-24T10:43:04;16.4;49.7
78461;SHT31;67755;51.986;5.696;2023-03-24T10:45:37;16.4;49.4
78461;SHT31;67755;51.986;5.696;2023-03-24T10:48:09;16.4;49.9
78461;SHT31;67755;51.986;5.696;2023-03-24T10:50:43;16.4;49.6
78461;SHT31;67755;51.986;5.696;2023-03-24T10:53:18;16.3;50.3
78461;SHT31;67755;51.986;5.696;2023-03-24T10:55:49;16.3;50.1
78461;SHT31;67755;51.986;5.696;2023-03-24T10:58:27;16.3;50.0
78461;SHT31;67755;51.986;5.696;2023-03-24T11:00:56;16.3;49.9
78461;SHT31;67755;51.986;5.696;2023-03-24T11:03:30;16.2;51.0
78461;SHT31;67755;51.986;5.696;2023-03-24T11:06:02;16.2;52.5
78461;SHT31;67755;51.986;5.696;2023-03-24T11:08:36;16.2;52.8
78461;SHT31;67755;51.986;5.696;2023-03-24T11:11:29;16.2;53.7
78461;SHT31;67755;51.986;5.696;2023-03-24T11:14:00;16.1;55.0
78461;SHT31;67755;51.986;5.696;2023-03-24T11:16:34;16.1;54.5
78461;SHT31;67755;51.986;5.696;2023-03-24T11:19:08;16.0;57.1
78461;SHT31;67755;51.986;5.696;2023-03-24T11:21:43;16.0;57.5
78461;SHT31;67755;51.986;5.696;2023-03-24T11:24:15;15.9;58.3
78461;SHT31;67755;51.986;5.696;2023-03-24T11:26:50;15.9;59.7
78461;SHT31;67755;51.986;5.696;2023-03-24T11:29:23;15.8;59.9
78461;SHT31;67755;51.986;5.696;2023-03-24T11:31:57;15.8;61.4
78461;SHT31;67755;51.986;5.696;2023-03-24T11:34:31;15.8;57.9
78461;SHT31;67755;51.986;5.696;2023-03-24T11:37:12;15.7;58.9
78461;SHT31;67755;51.986;5.696;2023-03-24T11:39:42;15.7;59.2
78461;SHT31;67755;51.986;5.696;2023-03-24T11:42:16;15.7;58.4
78461;SHT31;67755;51.986;5.696;2023-03-24T11:44:48;15.7;58.8
78461;SHT31;67755;51.986;5.696;2023-03-24T11:47:26;15.7;59.4
78461;SHT31;67755;51.986;5.696;2023-03-24T11:50:12;15.7;58.5
78461;SHT31;67755;51.986;5.696;2023-03-24T11:52:48;15.8;58.5
78461;SHT31;67755;51.986;5.696;2023-03-24T11:55:24;15.8;58.8
78461;SHT31;67755;51.986;5.696;2023-03-24T11:58:01;15.8;57.9
78461;SHT31;67755;51.986;5.696;2023-03-24T12:00:35;15.8;58.3
78461;SHT31;67755;51.986;5.696;2023-03-24T12:03:35;15.9;58.7
78461;SHT31;67755;51.986;5.696;2023-03-24T12:06:16;15.8;59.1
78461;SHT31;67755;51.986;5.696;2023-03-24T12:08:56;15.8;58.8
78461;SHT31;67755;51.986;5.696;2023-03-24T12:11:42;15.7;57.5
78461;SHT31;67755;51.986;5.696;2023-03-24T12:14:21;15.6;58.4
78461;SHT31;67755;51.986;5.696;2023-03-24T12:17:00;15.5;58.3
78461;SHT31;67755;51.986;5.696;2023-03-24T12:19:42;15.4;58.5
78461;SHT31;67755;51.986;5.696;2023-03-24T12:22:26;15.4;57.6
78461;SHT31;67755;51.986;5.696;2023-03-24T12:25:22;15.3;58.5
78461;SHT31;67755;51.986;5.696;2023-03-24T12:28:08;15.3;58.2
78461;SHT31;67755;51.986;5.696;2023-03-24T12:30:46;15.2;59.5
78461;SHT31;67755;51.986;5.696;2023-03-24T12:33:32;15.2;59.1
78461;SHT31;67755;51.986;5.696;2023-03-24T12:36:14;15.1;60.1
78461;SHT31;67755;51.986;5.696;2023-03-24T12:38:55;15.1;62.4
78461;SHT31;67755;51.986;5.696;2023-03-24T12:42:06;15.0;61.3
78461;SHT31;67755;51.986;5.696;2023-03-24T12:44:50;15.0;61.4
78461;SHT31;67755;51.986;5.696;2023-03-24T12:47:46;15.0;62.7
78461;SHT31;67755;51.986;5.696;2023-03-24T12:50:27;15.0;64.2
78461;SHT31;67755;51.986;5.696;2023-03-24T12:53:09;15.0;66.1
78461;SHT31;67755;51.986;5.696;2023-03-24T12:55:47;15.1;64.5
78461;SHT31;67755;51.986;5.696;2023-03-24T12:58:24;15.1;63.3
78461;SHT31;67755;51.986;5.696;2023-03-24T13:01:03;15.2;65.7
78461;SHT31;67755;51.986;5.696;2023-03-24T13:03:38;15.3;65.1
78461;SHT31;67755;51.986;5.696;2023-03-24T13:06:18;15.4;63.2
78461;SHT31;67755;51.986;5.696;2023-03-24T13:09:01;15.4;62.2
78461;SHT31;67755;51.986;5.696;2023-03-24T13:11:37;15.5;62.1
78461;SHT31;67755;51.986;5.696;2023-03-24T13:14:14;15.5;62.2
78461;SHT31;67755;51.986;5.696;2023-03-24T13:16:47;15.5;62.5
78461;SHT31;67755;51.986;5.696;2023-03-24T13:19:21;15.5;63.2
78461;SHT31;67755;51.986;5.696;2023-03-24T13:21:53;15.6;62.7
78461;SHT31;67755;51.986;5.696;2023-03-24T13:24:25;15.5;60.0
78461;SHT31;67755;51.986;5.696;2023-03-24T13:27:07;15.5;60.8
78461;SHT31;67755;51.986;5.696;2023-03-24T13:30:12;15.5;60.7
78461;SHT31;67755;51.986;5.696;2023-03-24T13:32:47;15.5;60.2
78461;SHT31;67755;51.986;5.696;2023-03-24T13:35:30;15.4;60.9
78461;SHT31;67755;51.986;5.696;2023-03-24T13:38:12;15.4;59.9
78461;SHT31;67755;51.986;5.696;2023-03-24T13:40:48;15.4;60.2
78461;SHT31;67755;51.986;5.696;2023-03-24T13:43:22;15.4;59.5
78461;SHT31;67755;51.986;5.696;2023-03-24T13:46:00;15.4;61.0
78461;SHT31;67755;51.986;5.696;2023-03-24T13:48:34;15.4;61.5
78461;SHT31;67755;51.986;5.696;2023-03-24T13:51:16;15.4;60.9
78461;SHT31;67755;51.986;5.696;2023-03-24T13:53:52;15.4;61.2
78461;SHT31;67755;51.986;5.696;2023-03-24T13:56:25;15.4;60.6
78461;SHT31;67755;51.986;5.696;2023-03-24T13:59:24;15.4;60.9
78461;SHT31;67755;51.986;5.696;2023-03-24T14:02:16;15.4;60.8
78461;SHT31;67755;51.986;5.696;2023-03-24T14:04:46;15.4;61.6
78461;SHT31;67755;51.986;5.696;2023-03-24T14:08:16;15.3;62.4
78461;SHT31;67755;51.986;5.696;2023-03-24T14:10:47;15.3;63.0
78461;SHT31;67755;51.986;5.696;2023-03-24T14:13:22;15.3;61.9
78461;SHT31;67755;51.986;5.696;2023-03-24T14:15:57;15.3;61.7
78461;SHT31;67755;51.986;5.696;2023-03-24T14:18:42;15.3;62.1
78461;SHT31;67755;51.986;5.696;2023-03-24T14:21:12;15.3;61.3
78461;SHT31;67755;51.986;5.696;2023-03-24T14:23:44;15.3;61.8
78461;SHT31;67755;51.986;5.696;2023-03-24T14:26:30;15.2;61.4
78461;SHT31;67755;51.986;5.696;2023-03-24T14:29:04;15.2;60.3
78461;SHT31;67755;51.986;5.696;2023-03-24T14:31:35;15.2;60.5
78461;SHT31;67755;51.986;5.696;2023-03-24T14:34:13;15.1;61.2
78461;SHT31;67755;51.986;5.696;2023-03-24T14:36:44;15.1;62.4
78461;SHT31;67755;51.986;5.696;2023-03-24T14:39:29;15.1;62.9
78461;SHT31;67755;51.986;5.696;2023-03-24T14:42:27;15.1;62.9
78461;SHT31;67755;51.986;5.696;2023-03-24T14:44:59;15.1;63.6
78461;SHT31;67755;51.986;5.696;2023-03-24T14:47:33;15.1;63.2
78461;SHT31;67755;51.986;5.696;2023-03-24T14:50:12;15.1;63.1
78461;SHT31;67755;51.986;5.696;2023-03-24T14:52:49;15.1;61.5
78461;SHT31;67755;51.986;5.696;2023-03-24T14:55:23;15.2;60.8
78461;SHT31;67755;51.986;5.696;2023-03-24T14:57:59;15.2;62.0
78461;SHT31;67755;51.986;5.696;2023-03-24T15:00:36;15.2;61.0
78461;SHT31;67755;51.986;5.696;2023-03-24T15:03:17;15.2;61.7
78461;SHT31;67755;51.986;5.696;2023-03-24T15:05:52;15.2;60.9
78461;SHT31;67755;51.986;5.696;2023-03-24T15:08:22;15.2;61.4
78461;SHT31;67755;51.986;5.696;2023-03-24T15:10:58;15.2;59.7
78461;SHT31;67755;51.986;5.696;2023-03-24T15:13:33;15.3;61.1
78461;SHT31;67755;51.986;5.696;2023-03-24T15:16:06;15.2;60.1
78461;SHT31;67755;51.986;5.696;2023-03-24T15:18:44;15.2;60.1
78461;SHT31;67755;51.986;5.696;2023-03-24T15:21:19;15.2;59.0
78461;SHT31;67755;51.986;5.696;2023-03-24T15:23:51;15.2;58.5
78461;SHT31;67755;51.986;5.696;2023-03-24T15:26:23;15.2;59.7
78461;SHT31;67755;51.986;5.696;2023-03-24T15:28:58;15.2;60.7
78461;SHT31;67755;51.986;5.696;2023-03-24T15:31:29;15.2;60.0
78461;SHT31;67755;51.986;5.696;2023-03-24T15:34:06;15.2;59.8
78461;SHT31;67755;51.986;5.696;2023-03-24T15:36:40;15.2;58.3
78461;SHT31;67755;51.986;5.696;2023-03-24T15:39:22;15.2;60.1
78461;SHT31;67755;51.986;5.696;2023-03-24T15:41:53;15.2;60.1
78461;SHT31;67755;51.986;5.696;2023-03-24T15:44:27;15.2;60.5
78461;SHT31;67755;51.986;5.696;2023-03-24T15:46:58;15.2;60.4
78461;SHT31;67755;51.986;5.696;2023-03-24T15:49:33;15.3;62.0
78461;SHT31;67755;51.986;5.696;2023-03-24T15:52:24;15.3;62.9
78461;SHT31;67755;51.986;5.696;2023-03-24T15:54:57;15.3;63.5
78461;SHT31;67755;51.986;5.696;2023-03-24T15:57:35;15.3;64.0
78461;SHT31;67755;51.986;5.696;2023-03-24T16:00:13;15.3;64.2
78461;SHT31;67755;51.986;5.696;2023-03-24T16:02:46;15.3;64.9
78461;SHT31;67755;51.986;5.696;2023-03-24T16:05:21;15.4;65.2
78461;SHT31;67755;51.986;5.696;2023-03-24T16:07:59;15.4;64.1
78461;SHT31;67755;51.986;5.696;2023-03-24T16:10:34;15.4;62.5
78461;SHT31;67755;51.986;5.696;2023-03-24T16:13:14;15.4;63.0
78461;SHT31;67755;51.986;5.696;2023-03-24T16:15:47;15.4;63.3
78461;SHT31;67755;51.986;5.696;2023-03-24T16:18:25;15.4;64.1
78461;SHT31;67755;51.986;5.696;2023-03-24T16:20:55;15.4;62.4
78461;SHT31;67755;51.986;5.696;2023-03-24T16:23:25;15.4;61.8
78461;SHT31;67755;51.986;5.696;2023-03-24T16:25:56;15.4;61.1
78461;SHT31;67755;51.986;5.696;2023-03-24T16:28:26;15.4;61.0
78461;SHT31;67755;51.986;5.696;2023-03-24T16:31:00;15.4;61.5
78461;SHT31;67755;51.986;5.696;2023-03-24T16:33:32;15.4;60.7
78461;SHT31;67755;51.986;5.696;2023-03-24T16:36:02;15.4;61.0
78461;SHT31;67755;51.986;5.696;2023-03-24T16:38:32;15.4;61.7
78461;SHT31;67755;51.986;5.696;2023-03-24T16:41:01;15.4;62.1
78461;SHT31;67755;51.986;5.696;2023-03-24T16:43:31;15.4;61.9
78461;SHT31;67755;51.986;5.696;2023-03-24T16:46:02;15.3;62.4
78461;SHT31;67755;51.986;5.696;2023-03-24T16:48:32;15.3;62.0
78461;SHT31;67755;51.986;5.696;2023-03-24T16:51:03;15.4;62.6
78461;SHT31;67755;51.986;5.696;2023-03-24T16:53:32;15.4;61.9
78461;SHT31;67755;51.986;5.696;2023-03-24T16:56:02;15.4;61.7